sensor_id;sensor_type;location;lat;lon;timestamp;temperature;humidity
30385;DHT22;17181;51.002;4.096;2023-05-10T02:04:37;14.00;99.90
30385;DHT22;17181;51.002;4.096;2023-05-10T02:13:59;14.00;99.90
30385;DHT22;17181;51.002;4.096;2023-05-10T02:17:48;13.90;99.90
30385;DHT22;17181;51.002;4.096;2023-05-10T02:20:46;14.20;99.90
30385;DHT22;17181;51.002;4.096;2023-05-10T02:23:15;14.00;99.90
30385;DHT22;17181;51.002;4.096;2023-05-10T02:25:43;14.00;99.90
30385;DHT22;17181;51.002;4.096;2023-05-10T02:31:49;14.00;99.90
30385;DHT22;17181;51.002;4.096;2023-05-10T02:34:49;14.10;99.90
30385;DHT22;17181;51.002;4.096;2023-05-10T02:37:53;14.00;99.90
30385;DHT22;17181;51.002;4.096;2023-05-10T02:46:19;14.00;99.90
30385;DHT22;17181;51.002;4.096;2023-05-10T02:48:46;13.90;99.90
30385;DHT22;17181;51.002;4.096;2023-05-10T05:18:40;14.10;99.90
30385;DHT22;17181;51.002;4.096;2023-05-10T05:21:17;14.10;99.90
30385;DHT22;17181;51.002;4.096;2023-05-10T05:23:48;14.10;99.90
30385;DHT22;17181;51.002;4.096;2023-05-10T05:26:20;14.20;99.90
30385;DHT22;17181;51.002;4.096;2023-05-10T05:35:18;14.30;99.90
30385;DHT22;17181;51.002;4.096;2023-05-10T05:48:21;14.30;99.90
30385;DHT22;17181;51.002;4.096;2023-05-10T05:50:59;14.30;99.90
30385;DHT22;17181;51.002;4.096;2023-05-10T05:53:33;14.30;99.90
30385;DHT22;17181;51.002;4.096;2023-05-10T05:58:44;14.30;99.90
30385;DHT22;17181;51.002;4.096;2023-05-10T06:39:50;14.40;99.90
30385;DHT22;17181;51.002;4.096;2023-05-10T06:42:52;14.40;99.90
30385;DHT22;17181;51.002;4.096;2023-05-10T16:34:22;15.30;99.90
30385;DHT22;17181;51.002;4.096;2023-05-10T22:15:14;14.50;99.90
30385;DHT22;17181;51.002;4.096;2023-05-10T22:17:40;14.50;99.90
30385;DHT22;17181;51.002;4.096;2023-05-10T22:20:09;14.50;99.90
30385;DHT22;17181;51.002;4.096;2023-05-10T22:22:35;14.50;99.90
30385;DHT22;17181;51.002;4.096;2023-05-10T22:25:01;14.50;99.90
30385;DHT22;17181;51.002;4.096;2023-05-10T22:27:27;14.50;99.90
30385;DHT22;17181;51.002;4.096;2023-05-10T22:29:53;14.50;99.90
30385;DHT22;17181;51.002;4.096;2023-05-10T22:32:19;14.50;99.90
30385;DHT22;17181;51.002;4.096;2023-05-10T22:34:45;14.50;99.90
30385;DHT22;17181;51.002;4.096;2023-05-10T22:37:11;14.50;99.90
30385;DHT22;17181;51.002;4.096;2023-05-10T22:39:39;14.50;99.90
30385;DHT22;17181;51.002;4.096;2023-05-10T22:42:05;14.70;99.90
30385;DHT22;17181;51.002;4.096;2023-05-10T22:44:31;14.50;99.90
30385;DHT22;17181;51.002;4.096;2023-05-10T22:46:58;14.50;99.90
30385;DHT22;17181;51.002;4.096;2023-05-10T22:49:24;14.50;99.90
30385;DHT22;17181;51.002;4.096;2023-05-10T22:51:50;14.50;99.90
30385;DHT22;17181;51.002;4.096;2023-05-10T22:54:16;14.50;99.90
30385;DHT22;17181;51.002;4.096;2023-05-10T22:56:43;14.50;99.90
30385;DHT22;17181;51.002;4.096;2023-05-10T22:59:09;14.50;99.90
30385;DHT22;17181;51.002;4.096;2023-05-10T23:01:35;14.40;99.90
30385;DHT22;17181;51.002;4.096;2023-05-10T23:04:02;14.30;99.90
30385;DHT22;17181;51.002;4.096;2023-05-10T23:06:28;14.40;99.90
30385;DHT22;17181;51.002;4.096;2023-05-10T23:08:57;14.30;99.90
30385;DHT22;17181;51.002;4.096;2023-05-10T23:11:24;14.40;99.90
30385;DHT22;17181;51.002;4.096;2023-05-10T23:13:50;14.40;99.90
30385;DHT22;17181;51.002;4.096;2023-05-10T23:16:17;14.30;99.90
30385;DHT22;17181;51.002;4.096;2023-05-10T23:18:46;14.20;99.90
30385;DHT22;17181;51.002;4.096;2023-05-10T23:21:13;14.50;99.90
30385;DHT22;17181;51.002;4.096;2023-05-10T23:23:39;14.40;99.90
30385;DHT22;17181;51.002;4.096;2023-05-10T23:26:06;14.20;99.90
30385;DHT22;17181;51.002;4.096;2023-05-10T23:28:33;14.20;99.90
30385;DHT22;17181;51.002;4.096;2023-05-10T23:30:59;14.20;99.90
30385;DHT22;17181;51.002;4.096;2023-05-10T23:33:27;14.20;99.90
30385;DHT22;17181;51.002;4.096;2023-05-10T23:35:53;14.10;99.90
30385;DHT22;17181;51.002;4.096;2023-05-10T23:38:20;14.20;99.90
30385;DHT22;17181;51.002;4.096;2023-05-10T23:40:47;14.10;99.90
30385;DHT22;17181;51.002;4.096;2023-05-10T23:43:14;14.10;99.90
30385;DHT22;17181;51.002;4.096;2023-05-10T23:45:41;14.00;99.90
30385;DHT22;17181;51.002;4.096;2023-05-10T23:48:08;14.00;99.90
30385;DHT22;17181;51.002;4.096;2023-05-10T23:50:34;14.00;99.90
30385;DHT22;17181;51.002;4.096;2023-05-10T23:53:02;13.90;99.90
30385;DHT22;17181;51.002;4.096;2023-05-10T23:55:28;14.00;99.90
30385;DHT22;17181;51.002;4.096;2023-05-10T23:57:55;14.00;99.90
